createdAt,value
2019-03-10T00:02:27.525Z,7.40
2019-03-10T00:04:57.174Z,7.50
2019-03-10T00:07:27.104Z,7.50
2019-03-10T00:09:56.924Z,7.40
2019-03-10T00:12:27.151Z,7.50
2019-03-10T00:14:57.181Z,7.50
2019-03-10T00:17:26.876Z,7.40
2019-03-10T00:19:56.955Z,7.50
2019-03-10T00:22:26.695Z,7.50
2019-03-10T00:24:56.804Z,7.50
2019-03-10T00:27:26.565Z,7.50
2019-03-10T00:29:56.456Z,7.50
2019-03-10T00:32:26.456Z,7.50
2019-03-10T00:34:56.692Z,7.50
2019-03-10T00:37:26.690Z,7.50
2019-03-10T00:40:21.584Z,7.60
2019-03-10T00:43:23.841Z,7.60
2019-03-10T00:46:46.716Z,7.60
2019-03-10T00:50:08.413Z,7.60
2019-03-10T00:52:45.050Z,7.60
2019-03-10T00:55:15.126Z,7.60
2019-03-10T00:57:45.262Z,7.60
2019-03-10T01:00:17.700Z,7.60
2019-03-10T01:02:47.717Z,7.60
2019-03-10T01:05:17.995Z,7.50
2019-03-10T01:07:47.764Z,7.60
2019-03-10T01:10:18.049Z,7.60
2019-03-10T01:12:48.427Z,7.60
2019-03-10T01:15:18.459Z,7.60
2019-03-10T01:17:49.498Z,7.60
2019-03-10T01:20:19.376Z,7.60
2019-03-10T01:22:49.311Z,7.70
2019-03-10T01:25:19.110Z,7.70
2019-03-10T01:27:49.011Z,7.70
2019-03-10T01:30:20.103Z,7.70
2019-03-10T01:33:36.918Z,7.60
2019-03-10T01:36:15.413Z,7.70
2019-03-10T01:38:45.523Z,7.70
2019-03-10T01:41:15.530Z,7.70
2019-03-10T01:43:45.333Z,7.70
2019-03-10T01:46:15.664Z,7.70
2019-03-10T01:48:45.578Z,7.70
2019-03-10T01:51:15.896Z,7.70
2019-03-10T01:53:45.713Z,7.70
2019-03-10T01:56:15.351Z,7.80
2019-03-10T01:58:45.286Z,7.70
2019-03-10T02:01:14.929Z,7.70
2019-03-10T02:03:44.925Z,7.60
2019-03-10T02:06:14.650Z,7.80
2019-03-10T02:08:44.474Z,7.80
2019-03-10T02:11:14.570Z,7.70
2019-03-10T02:13:44.387Z,7.80
2019-03-10T02:16:14.684Z,7.70
2019-03-10T02:18:45.062Z,7.70
2019-03-10T02:21:15.157Z,7.70
2019-03-10T02:23:44.636Z,7.70
2019-03-10T02:26:14.335Z,7.90
2019-03-10T02:28:44.028Z,7.80
2019-03-10T02:31:14.231Z,7.80
2019-03-10T02:33:44.594Z,7.80
2019-03-10T02:36:14.527Z,7.70
2019-03-10T02:38:44.136Z,7.80
2019-03-10T02:41:14.125Z,7.80
2019-03-10T02:43:44.030Z,7.80
2019-03-10T02:46:13.846Z,7.80
2019-03-10T02:48:43.583Z,7.80
2019-03-10T02:51:13.782Z,7.80
2019-03-10T02:53:43.759Z,7.90
2019-03-10T02:56:13.874Z,7.90
2019-03-10T02:58:44.451Z,7.80
2019-03-10T03:01:14.326Z,7.90
2019-03-10T03:03:44.585Z,7.80
2019-03-10T03:06:14.562Z,7.80
2019-03-10T03:08:44.821Z,7.80
2019-03-10T03:11:14.442Z,7.70
2019-03-10T03:13:44.340Z,7.70
2019-03-10T03:16:14.322Z,7.80
2019-03-10T03:18:44.086Z,7.80
2019-03-10T03:21:14.103Z,7.70
2019-03-10T03:23:44.026Z,7.70
2019-03-10T03:26:14.204Z,7.60
2019-03-10T03:28:44.032Z,7.50
2019-03-10T03:31:13.875Z,7.70
2019-03-10T03:33:43.990Z,7.60
2019-03-10T03:36:26.947Z,7.70
2019-03-10T03:39:04.219Z,7.70
2019-03-10T03:41:34.620Z,7.70
2019-03-10T03:44:04.506Z,7.60
2019-03-10T03:46:34.380Z,7.50
2019-03-10T03:49:04.390Z,7.40
2019-03-10T03:51:34.448Z,7.60
2019-03-10T03:54:04.245Z,7.60
2019-03-10T03:56:34.526Z,7.30
2019-03-10T03:59:04.687Z,7.30
2019-03-10T04:01:38.816Z,7.30
2019-03-10T04:04:09.080Z,7.20
2019-03-10T04:06:39.053Z,7.10
2019-03-10T04:09:09.415Z,7.00
2019-03-10T04:11:41.646Z,7.00
2019-03-10T04:14:11.842Z,7.00
2019-03-10T04:16:42.479Z,7.00
2019-03-10T04:19:12.655Z,7.20
2019-03-10T04:21:42.433Z,7.10
2019-03-10T04:24:11.942Z,7.00
2019-03-10T04:26:42.406Z,6.90
2019-03-10T04:29:12.765Z,7.00
2019-03-10T04:31:45.560Z,7.00
2019-03-10T04:34:15.858Z,6.70
2019-03-10T04:37:10.943Z,6.70
2019-03-10T04:39:41.813Z,6.70
2019-03-10T04:42:11.566Z,6.80
2019-03-10T04:44:41.745Z,6.80
2019-03-10T04:47:23.833Z,6.80
2019-03-10T04:49:56.937Z,6.70
2019-03-10T04:52:29.804Z,6.70
2019-03-10T04:55:26.335Z,6.80
2019-03-10T04:58:13.252Z,6.70
2019-03-10T05:00:47.685Z,6.60
2019-03-10T05:03:44.525Z,6.40
2019-03-10T05:06:24.463Z,6.60
2019-03-10T05:08:58.069Z,6.50
2019-03-10T05:11:29.934Z,6.60
2019-03-10T05:14:15.530Z,6.50
2019-03-10T05:16:48.488Z,6.50
2019-03-10T05:19:23.871Z,6.40
2019-03-10T05:21:56.040Z,6.40
2019-03-10T05:24:30.466Z,6.30
2019-03-10T05:27:01.460Z,6.40
2019-03-10T05:29:31.551Z,6.40
2019-03-10T05:32:04.657Z,6.30
2019-03-10T05:34:34.725Z,6.20
2019-03-10T05:37:31.433Z,6.20
2019-03-10T05:43:14.454Z,6.20
2019-03-10T05:46:19.153Z,6.10
2019-03-10T05:48:51.172Z,6.10
2019-03-10T05:51:24.943Z,6.20
2019-03-10T05:53:55.606Z,6.20
2019-03-10T05:56:25.978Z,6.10
2019-03-10T06:17:28.911Z,5.80
2019-03-10T06:30:11.621Z,5.90
2019-03-10T06:32:41.285Z,5.90
2019-03-10T06:35:11.097Z,5.90
2019-03-10T06:37:42.173Z,5.90
2019-03-10T06:40:12.067Z,5.80
2019-03-10T06:42:41.925Z,5.80
2019-03-10T06:45:11.930Z,5.80
2019-03-10T06:47:41.361Z,5.90
2019-03-10T06:50:12.446Z,5.90
2019-03-10T06:52:42.638Z,5.80
2019-03-10T06:55:12.642Z,5.80
2019-03-10T06:57:42.777Z,5.80
2019-03-10T07:00:13.501Z,5.90
2019-03-10T07:02:43.262Z,5.90
2019-03-10T07:05:13.503Z,6.00
2019-03-10T07:07:43.246Z,4.40
2019-03-10T07:10:14.100Z,5.80
2019-03-10T07:12:43.984Z,5.70
2019-03-10T07:15:13.967Z,5.60
2019-03-10T07:17:43.845Z,5.70
2019-03-10T07:20:15.827Z,5.80
2019-03-10T07:22:45.997Z,5.80
2019-03-10T07:25:16.012Z,5.80
2019-03-10T07:28:23.528Z,5.70
2019-03-10T07:31:10.260Z,5.80
2019-03-10T07:33:54.159Z,5.70
2019-03-10T07:36:36.354Z,5.60
2019-03-10T07:39:13.910Z,5.60
2019-03-10T07:41:49.800Z,5.70
2019-03-10T07:44:41.026Z,5.70
2019-03-10T07:47:32.733Z,5.70
2019-03-10T07:50:27.469Z,5.60
2019-03-10T07:53:34.244Z,5.70
2019-03-10T07:56:11.617Z,5.50
2019-03-10T07:59:06.392Z,5.70
2019-03-10T08:01:45.830Z,5.60
2019-03-10T08:04:31.659Z,5.80
2019-03-10T08:07:23.693Z,5.90
2019-03-10T08:10:12.206Z,6.00
2019-03-10T08:12:59.735Z,5.90
2019-03-10T08:16:00.563Z,5.80
2019-03-10T08:18:44.088Z,6.00
2019-03-10T08:21:42.001Z,6.00
2019-03-10T08:24:35.628Z,5.90
2019-03-10T08:27:24.289Z,5.70
2019-03-10T08:30:04.950Z,5.70
2019-03-10T08:32:53.771Z,5.80
2019-03-10T08:35:34.797Z,5.80
2019-03-10T08:38:14.638Z,6.10
2019-03-10T08:41:09.717Z,5.90
2019-03-10T08:43:52.133Z,5.90
2019-03-10T08:46:58.913Z,5.90
2019-03-10T08:49:47.598Z,5.80
2019-03-10T08:52:39.117Z,5.80
2019-03-10T08:55:20.216Z,5.80
2019-03-10T08:58:27.145Z,5.80
2019-03-10T09:01:30.847Z,5.70
2019-03-10T09:04:12.892Z,5.80
2019-03-10T09:07:13.603Z,5.70
2019-03-10T09:09:57.819Z,5.70
2019-03-10T09:12:46.560Z,6.10
2019-03-10T09:15:33.883Z,6.00
2019-03-10T09:18:28.871Z,5.90
2019-03-10T09:21:17.651Z,5.90
2019-03-10T09:24:05.102Z,6.00
2019-03-10T09:26:47.632Z,6.10
2019-03-10T09:29:35.211Z,6.10
2019-03-10T09:32:22.957Z,6.20
2019-03-10T09:35:14.700Z,6.00
2019-03-10T09:38:09.463Z,6.20
2019-03-10T09:40:57.407Z,6.30
2019-03-10T09:43:46.463Z,6.40
2019-03-10T09:46:41.566Z,6.50
2019-03-10T09:49:31.444Z,6.50
2019-03-10T09:52:11.805Z,6.50
2019-03-10T09:54:54.573Z,6.70
2019-03-10T09:57:49.043Z,6.70
2019-03-10T10:00:36.669Z,6.70
2019-03-10T10:03:29.180Z,6.50
2019-03-10T10:06:20.933Z,6.70
2019-03-10T10:09:16.540Z,6.90
2019-03-10T10:11:58.921Z,7.00
2019-03-10T10:14:34.844Z,7.00
2019-03-10T10:17:23.803Z,7.20
2019-03-10T10:20:06.550Z,7.30
2019-03-10T10:22:46.420Z,7.30
2019-03-10T10:25:24.406Z,7.20
2019-03-10T10:28:06.222Z,7.40
2019-03-10T10:31:04.808Z,7.60
2019-03-10T10:33:53.529Z,7.70
2019-03-10T10:36:51.129Z,7.70
2019-03-10T10:39:31.270Z,7.90
2019-03-10T10:42:22.606Z,7.90
2019-03-10T10:45:14.494Z,7.80
2019-03-10T10:48:06.726Z,7.90
2019-03-10T10:50:54.264Z,8.00
2019-03-10T10:53:28.127Z,8.20
2019-03-10T10:56:13.170Z,8.20
2019-03-10T10:59:00.826Z,8.30
2019-03-10T11:01:49.968Z,8.40
2019-03-10T11:04:31.806Z,8.60
2019-03-10T11:07:23.214Z,8.80
2019-03-10T11:10:08.910Z,9.30
2019-03-10T11:12:54.706Z,9.70
2019-03-10T11:15:49.900Z,10.00
2019-03-10T11:18:41.682Z,10.80
2019-03-10T11:21:20.064Z,10.90
2019-03-10T11:24:09.523Z,10.80
2019-03-10T11:27:10.755Z,10.70
2019-03-10T11:29:48.644Z,10.70
2019-03-10T11:32:52.464Z,10.60
2019-03-10T11:35:53.677Z,10.60
2019-03-10T11:38:33.149Z,10.80
2019-03-10T11:41:20.777Z,10.90
2019-03-10T11:44:02.085Z,11.10
2019-03-10T11:46:49.127Z,11.10
2019-03-10T11:49:39.643Z,11.50
2019-03-10T11:52:28.833Z,11.90
2019-03-10T11:55:20.685Z,12.00
2019-03-10T11:58:13.495Z,12.30
2019-03-10T12:01:11.067Z,12.60
2019-03-10T12:04:02.588Z,12.50
2019-03-10T12:06:49.019Z,12.20
2019-03-10T12:09:20.801Z,12.10
2019-03-10T12:11:51.293Z,11.90
2019-03-10T12:14:20.876Z,11.80
2019-03-10T12:16:52.348Z,11.70
2019-03-10T12:19:21.729Z,11.40
2019-03-10T12:21:51.524Z,11.30
2019-03-10T12:24:21.283Z,11.20
2019-03-10T12:26:51.896Z,11.10
2019-03-10T12:29:22.012Z,11.00
2019-03-10T12:31:51.499Z,10.80
2019-03-10T12:34:21.104Z,10.80
2019-03-10T12:36:51.283Z,10.70
2019-03-10T12:39:21.162Z,10.60
2019-03-10T12:41:58.482Z,10.70
2019-03-10T12:44:21.881Z,10.80
2019-03-10T12:46:51.591Z,10.90
2019-03-10T12:49:21.281Z,11.10
2019-03-10T12:51:50.904Z,11.10
2019-03-10T12:54:21.043Z,11.20
2019-03-10T12:56:50.627Z,11.30
2019-03-10T12:59:20.679Z,11.20
2019-03-10T13:01:50.763Z,11.20
2019-03-10T13:04:20.807Z,11.20
2019-03-10T13:06:50.564Z,11.10
2019-03-10T13:09:20.294Z,11.10
2019-03-10T13:11:50.440Z,11.00
2019-03-10T13:14:20.153Z,10.90
2019-03-10T13:16:49.731Z,10.80
2019-03-10T13:19:19.361Z,10.60
2019-03-10T13:21:48.839Z,10.40
2019-03-10T13:24:18.641Z,10.30
2019-03-10T13:26:48.463Z,10.30
2019-03-10T13:29:18.162Z,10.10
2019-03-10T13:31:48.165Z,10.10
2019-03-10T13:34:17.587Z,9.90
2019-03-10T13:36:47.377Z,9.80
2019-03-10T13:39:17.082Z,9.80
2019-03-10T13:41:47.367Z,9.80
2019-03-10T13:44:17.093Z,10.10
2019-03-10T13:46:46.538Z,10.20
2019-03-10T13:49:16.349Z,10.20
2019-03-10T13:51:45.852Z,10.20
2019-03-10T13:54:15.870Z,10.10
2019-03-10T13:56:45.592Z,10.00
2019-03-10T13:59:15.162Z,10.00
2019-03-10T14:01:45.094Z,9.90
2019-03-10T14:04:14.817Z,9.80
2019-03-10T14:06:44.618Z,9.60
2019-03-10T14:09:14.526Z,9.50
2019-03-10T14:11:44.132Z,9.30
2019-03-10T14:14:13.946Z,9.20
2019-03-10T14:16:43.734Z,9.20
2019-03-10T14:19:13.724Z,9.10
2019-03-10T14:21:43.613Z,8.90
2019-03-10T14:24:13.123Z,8.90
2019-03-10T14:26:43.017Z,8.80
2019-03-10T14:29:13.003Z,8.70
2019-03-10T14:31:42.924Z,8.70
2019-03-10T14:34:13.120Z,8.60
2019-03-10T14:36:43.121Z,8.60
2019-03-10T14:39:13.176Z,8.50
2019-03-10T14:41:43.360Z,8.40
2019-03-10T14:44:13.057Z,8.40
2019-03-10T14:46:44.341Z,8.40
2019-03-10T14:49:22.577Z,8.40
2019-03-10T14:51:45.611Z,8.30
2019-03-10T14:54:15.840Z,8.30
2019-03-10T14:56:58.741Z,8.30
2019-03-10T14:59:29.452Z,8.20
2019-03-10T15:02:00.366Z,8.10
2019-03-10T15:04:30.172Z,8.10
2019-03-10T15:07:03.009Z,8.10
2019-03-10T15:09:32.315Z,8.10
2019-03-10T15:12:01.841Z,8.00
2019-03-10T15:14:32.031Z,8.00
2019-03-10T15:17:02.165Z,8.00
2019-03-10T15:19:32.561Z,8.10
2019-03-10T15:22:02.563Z,8.20
2019-03-10T15:24:33.168Z,8.10
2019-03-10T15:27:03.099Z,8.00
2019-03-10T15:29:32.844Z,7.90
2019-03-10T15:32:03.040Z,7.80
2019-03-10T15:34:33.520Z,7.80
2019-03-10T15:37:03.532Z,7.80
2019-03-10T15:39:34.130Z,7.80
2019-03-10T15:42:04.190Z,7.80
2019-03-10T15:44:34.485Z,7.70
2019-03-10T15:47:05.360Z,7.70
2019-03-10T15:49:35.499Z,7.70
2019-03-10T15:52:07.359Z,7.60
2019-03-10T15:54:36.884Z,7.60
2019-03-10T15:57:06.893Z,7.60
2019-03-10T15:59:36.885Z,7.60
2019-03-10T16:02:06.952Z,7.50
2019-03-10T16:04:36.887Z,7.30
2019-03-10T16:07:06.880Z,7.10
2019-03-10T16:09:36.679Z,6.80
2019-03-10T16:12:06.643Z,6.50
2019-03-10T16:14:36.227Z,6.10
2019-03-10T16:17:13.776Z,5.80
2019-03-10T16:19:44.081Z,5.30
2019-03-10T16:22:14.464Z,5.30
2019-03-10T16:24:49.223Z,5.20
2019-03-10T16:27:26.136Z,5.00
2019-03-10T16:30:00.539Z,4.90
2019-03-10T16:32:30.058Z,4.80
2019-03-10T16:35:00.069Z,4.70
2019-03-10T16:37:29.804Z,4.60
2019-03-10T16:39:59.438Z,4.70
2019-03-10T16:42:28.901Z,4.60
2019-03-10T16:44:58.842Z,4.50
2019-03-10T16:47:28.723Z,4.50
2019-03-10T16:49:58.431Z,4.50
2019-03-10T16:52:28.132Z,4.50
2019-03-10T16:54:58.047Z,4.50
2019-03-10T16:57:27.525Z,4.60
2019-03-10T16:59:57.157Z,4.50
2019-03-10T17:02:26.807Z,4.40
2019-03-10T17:05:05.273Z,4.60
2019-03-10T17:11:38.620Z,4.50
2019-03-10T17:14:38.818Z,4.50
2019-03-10T17:17:24.918Z,4.40
2019-03-10T17:20:30.250Z,4.40
2019-03-10T17:23:43.518Z,4.50
2019-03-10T17:27:32.045Z,4.60
2019-03-10T17:29:17.938Z,4.40
2019-03-10T17:31:52.804Z,4.50
2019-03-10T17:34:51.906Z,4.60
2019-03-10T17:37:28.125Z,4.70
2019-03-10T17:40:06.902Z,4.80
2019-03-10T17:43:01.243Z,4.80
2019-03-10T17:45:42.474Z,4.70
2019-03-10T17:48:24.123Z,4.60
2019-03-10T17:50:56.806Z,4.60
2019-03-10T17:53:27.443Z,4.60
2019-03-10T17:56:07.505Z,4.60
2019-03-10T18:01:46.808Z,4.60
2019-03-10T18:04:27.573Z,4.70
2019-03-10T18:07:00.944Z,4.70
2019-03-10T18:09:31.785Z,4.60
2019-03-10T18:15:33.353Z,4.60
2019-03-10T18:16:26.873Z,4.60
2019-03-10T18:18:08.288Z,4.50
2019-03-10T18:20:40.744Z,4.60
2019-03-10T18:23:11.443Z,4.60
2019-03-10T18:25:48.378Z,4.50
2019-03-10T18:28:28.875Z,4.60
2019-03-10T18:31:31.369Z,4.60
2019-03-10T18:34:02.092Z,4.70
2019-03-10T18:36:50.998Z,4.60
2019-03-10T18:39:20.329Z,4.70
2019-03-10T18:42:17.222Z,4.70
2019-03-10T18:45:03.879Z,4.80
2019-03-10T18:47:51.308Z,4.70
2019-03-10T18:50:24.760Z,4.70
2019-03-10T18:53:16.181Z,4.70
2019-03-10T18:55:47.118Z,4.50
2019-03-10T18:58:50.236Z,4.40
2019-03-10T19:13:57.519Z,4.00
2019-03-10T19:19:59.141Z,3.80
2019-03-10T19:22:40.004Z,3.60
2019-03-10T19:28:34.929Z,3.70
2019-03-10T19:31:18.883Z,3.70
2019-03-10T19:34:29.541Z,3.70
2019-03-10T19:39:55.237Z,3.60
2019-03-10T19:42:33.703Z,3.50
2019-03-10T19:45:04.550Z,3.50
2019-03-10T19:47:44.543Z,3.50
2019-03-10T19:50:37.598Z,3.50
2019-03-10T19:53:16.749Z,3.40
2019-03-10T19:55:52.405Z,3.40
2019-03-10T19:58:30.611Z,3.40
2019-03-10T20:04:28.609Z,3.40
2019-03-10T20:07:00.396Z,3.30
2019-03-10T20:09:37.029Z,3.30
2019-03-10T20:15:43.418Z,3.40
2019-03-10T20:18:17.492Z,3.40
2019-03-10T20:20:49.695Z,3.40
2019-03-10T20:30:32.930Z,3.40
2019-03-10T20:33:06.207Z,3.20
2019-03-10T20:35:40.476Z,3.20
2019-03-10T20:38:13.164Z,3.10
2019-03-10T20:41:29.853Z,3.10
2019-03-10T20:44:11.438Z,3.00
2019-03-10T20:47:07.771Z,3.10
2019-03-10T20:49:41.984Z,3.30
2019-03-10T20:52:20.463Z,3.20
2019-03-10T20:54:55.195Z,3.20
2019-03-10T20:57:29.795Z,3.20
2019-03-10T21:00:10.896Z,3.20
2019-03-10T21:02:42.551Z,3.20
2019-03-10T21:12:16.528Z,3.20
2019-03-10T21:15:05.404Z,3.10
2019-03-10T21:21:28.580Z,3.10
2019-03-10T21:23:59.303Z,3.20
2019-03-10T21:26:31.632Z,3.10
2019-03-10T21:32:46.020Z,3.00
2019-03-10T21:35:19.330Z,3.10
2019-03-10T21:38:15.667Z,3.00
2019-03-10T21:40:52.893Z,2.90
2019-03-10T21:43:48.356Z,2.90
2019-03-10T21:53:38.698Z,2.90
2019-03-10T22:07:39.086Z,2.80
2019-03-10T22:10:31.278Z,3.00
2019-03-10T22:13:46.064Z,3.10
2019-03-10T22:16:40.970Z,3.20
2019-03-10T22:19:46.039Z,3.00
2019-03-10T22:22:23.205Z,2.90
2019-03-10T22:25:13.199Z,3.00
2019-03-10T22:28:04.796Z,3.00
2019-03-10T22:30:43.057Z,3.00
2019-03-10T22:33:19.248Z,3.10
2019-03-10T22:35:57.119Z,3.10
2019-03-10T22:38:41.533Z,3.10
2019-03-10T22:42:16.800Z,3.10
2019-03-10T22:44:51.494Z,3.10
2019-03-10T22:47:49.720Z,3.10
2019-03-10T22:50:32.185Z,3.20
2019-03-10T22:53:42.545Z,3.10
2019-03-10T23:03:22.611Z,3.00
2019-03-10T23:05:58.596Z,3.00
2019-03-10T23:08:29.104Z,3.20
2019-03-10T23:11:11.084Z,3.20
2019-03-10T23:13:49.477Z,3.20
2019-03-10T23:16:20.279Z,3.40
2019-03-10T23:18:52.872Z,3.30
2019-03-10T23:21:30.531Z,3.30
2019-03-10T23:24:01.563Z,3.30
2019-03-10T23:26:36.360Z,3.40
2019-03-10T23:29:08.095Z,3.40
2019-03-10T23:31:39.049Z,3.50
2019-03-10T23:34:14.486Z,3.50
2019-03-10T23:37:14.840Z,3.60
2019-03-10T23:39:47.808Z,3.70
2019-03-10T23:42:21.594Z,3.70
2019-03-10T23:44:52.009Z,3.80
2019-03-10T23:47:22.457Z,3.80
2019-03-10T23:52:52.137Z,3.80
2019-03-10T23:55:24.672Z,3.90
2019-03-10T23:58:00.666Z,4.00
